sensor_id;sensor_type;location;lat;lon;timestamp;pressure;altitude;pressure_sealevel;temperature;humidity
75913;BME280;64592;52.168;21.040;2023-04-01T00:00:44;98469.28;;;9.59;93.73
75913;BME280;64592;52.168;21.040;2023-04-01T00:05:46;98464.25;;;9.56;94.08
75913;BME280;64592;52.168;21.040;2023-04-01T00:10:50;98451.78;;;9.55;94.22
75913;BME280;64592;52.168;21.040;2023-04-01T00:15:52;98446.41;;;9.55;93.78
75913;BME280;64592;52.168;21.040;2023-04-01T00:20:54;98439.66;;;9.51;94.14
75913;BME280;64592;52.168;21.040;2023-04-01T00:25:59;98441.63;;;9.49;94.19
75913;BME280;64592;52.168;21.040;2023-04-01T00:31:04;98428.88;;;9.51;94.38
75913;BME280;64592;52.168;21.040;2023-04-01T00:36:08;98423.50;;;9.51;94.08
75913;BME280;64592;52.168;21.040;2023-04-01T00:41:13;98429.88;;;9.50;94.67
75913;BME280;64592;52.168;21.040;2023-04-01T00:46:15;98438.28;;;9.47;94.40
75913;BME280;64592;52.168;21.040;2023-04-01T00:51:21;98446.78;;;9.42;95.09
75913;BME280;64592;52.168;21.040;2023-04-01T00:56:30;98439.91;;;9.40;95.07
75913;BME280;64592;52.168;21.040;2023-04-01T01:01:32;98447.28;;;9.38;95.61
75913;BME280;64592;52.168;21.040;2023-04-01T01:06:43;98437.50;;;9.37;95.38
75913;BME280;64592;52.168;21.040;2023-04-01T01:11:50;98440.53;;;9.33;95.30
75913;BME280;64592;52.168;21.040;2023-04-01T01:16:55;98439.84;;;9.31;95.75
75913;BME280;64592;52.168;21.040;2023-04-01T01:22:29;98436.44;;;9.29;94.95
75913;BME280;64592;52.168;21.040;2023-04-01T01:27:37;98422.63;;;9.24;94.80
75913;BME280;64592;52.168;21.040;2023-04-01T01:33:22;98438.38;;;9.19;95.57
75913;BME280;64592;52.168;21.040;2023-04-01T01:38:31;98436.84;;;9.17;95.12
75913;BME280;64592;52.168;21.040;2023-04-01T01:43:37;98446.19;;;9.13;95.53
75913;BME280;64592;52.168;21.040;2023-04-01T01:48:41;98441.28;;;9.08;94.62
75913;BME280;64592;52.168;21.040;2023-04-01T01:53:45;98439.59;;;9.07;95.38
75913;BME280;64592;52.168;21.040;2023-04-01T01:58:49;98447.16;;;9.04;95.08
75913;BME280;64592;52.168;21.040;2023-04-01T02:03:54;98432.69;;;9.05;94.38
75913;BME280;64592;52.168;21.040;2023-04-01T02:09:00;98420.09;;;9.05;94.23
75913;BME280;64592;52.168;21.040;2023-04-01T02:14:06;98414.56;;;9.07;94.86
75913;BME280;64592;52.168;21.040;2023-04-01T02:19:10;98423.47;;;9.07;94.21
75913;BME280;64592;52.168;21.040;2023-04-01T02:24:16;98408.19;;;9.08;94.41
75913;BME280;64592;52.168;21.040;2023-04-01T02:29:19;98404.53;;;9.09;94.67
75913;BME280;64592;52.168;21.040;2023-04-01T02:34:23;98400.84;;;9.10;94.20
75913;BME280;64592;52.168;21.040;2023-04-01T02:39:27;98395.31;;;9.11;94.46
75913;BME280;64592;52.168;21.040;2023-04-01T02:44:28;98406.34;;;9.08;94.24
75913;BME280;64592;52.168;21.040;2023-04-01T02:49:32;98404.16;;;9.04;94.36
75913;BME280;64592;52.168;21.040;2023-04-01T02:54:35;98406.13;;;9.02;95.08
75913;BME280;64592;52.168;21.040;2023-04-01T02:59:36;98403.88;;;8.97;94.23
75913;BME280;64592;52.168;21.040;2023-04-01T03:04:38;98417.66;;;8.94;94.64
75913;BME280;64592;52.168;21.040;2023-04-01T03:09:43;98431.94;;;8.94;94.79
75913;BME280;64592;52.168;21.040;2023-04-01T03:14:44;98420.34;;;8.94;94.69
75913;BME280;64592;52.168;21.040;2023-04-01T03:19:46;98426.84;;;8.91;94.40
75913;BME280;64592;52.168;21.040;2023-04-01T03:24:49;98435.91;;;8.90;94.82
75913;BME280;64592;52.168;21.040;2023-04-01T03:29:51;98432.56;;;8.88;95.35
75913;BME280;64592;52.168;21.040;2023-04-01T03:34:53;98439.06;;;8.86;94.70
75913;BME280;64592;52.168;21.040;2023-04-01T03:39:56;98426.91;;;8.82;94.89
75913;BME280;64592;52.168;21.040;2023-04-01T03:44:57;98437.97;;;8.79;95.12
75913;BME280;64592;52.168;21.040;2023-04-01T03:49:59;98448.03;;;8.77;95.12
75913;BME280;64592;52.168;21.040;2023-04-01T03:55:03;98455.69;;;8.72;94.90
75913;BME280;64592;52.168;21.040;2023-04-01T04:00:06;98453.16;;;8.70;95.87
75913;BME280;64592;52.168;21.040;2023-04-01T04:05:09;98455.69;;;8.72;95.14
75913;BME280;64592;52.168;21.040;2023-04-01T04:10:12;98461.78;;;8.74;95.10
75913;BME280;64592;52.168;21.040;2023-04-01T04:15:14;98466.84;;;8.77;95.04
75913;BME280;64592;52.168;21.040;2023-04-01T04:20:15;98477.56;;;8.77;95.34
75913;BME280;64592;52.168;21.040;2023-04-01T04:25:19;98476.44;;;8.79;95.32
75913;BME280;64592;52.168;21.040;2023-04-01T04:30:20;98481.81;;;8.79;94.83
75913;BME280;64592;52.168;21.040;2023-04-01T04:35:22;98480.81;;;8.80;95.40
75913;BME280;64592;52.168;21.040;2023-04-01T04:40:25;98477.81;;;8.83;94.48
75913;BME280;64592;52.168;21.040;2023-04-01T04:45:27;98485.72;;;8.85;93.83
75913;BME280;64592;52.168;21.040;2023-04-01T04:50:28;98486.44;;;8.87;93.94
75913;BME280;64592;52.168;21.040;2023-04-01T04:55:31;98480.06;;;8.88;94.11
75913;BME280;64592;52.168;21.040;2023-04-01T05:00:33;98476.38;;;8.89;93.82
75913;BME280;64592;52.168;21.040;2023-04-01T05:05:35;98486.28;;;8.88;94.09
75913;BME280;64592;52.168;21.040;2023-04-01T05:10:38;98482.75;;;8.88;93.96
75913;BME280;64592;52.168;21.040;2023-04-01T05:15:40;98490.81;;;8.88;93.82
75913;BME280;64592;52.168;21.040;2023-04-01T05:20:46;98499.72;;;8.88;92.93
75913;BME280;64592;52.168;21.040;2023-04-01T05:25:50;98497.88;;;8.89;92.79
75913;BME280;64592;52.168;21.040;2023-04-01T05:30:53;98497.19;;;8.87;93.55
75913;BME280;64592;52.168;21.040;2023-04-01T05:35:55;98497.03;;;8.88;93.07
75913;BME280;64592;52.168;21.040;2023-04-01T05:40:59;98503.94;;;8.91;93.12
75913;BME280;64592;52.168;21.040;2023-04-01T05:46:01;98502.66;;;8.95;92.84
75913;BME280;64592;52.168;21.040;2023-04-01T05:51:04;98505.19;;;8.97;93.12
75913;BME280;64592;52.168;21.040;2023-04-01T05:56:07;98500.34;;;9.00;92.39
75913;BME280;64592;52.168;21.040;2023-04-01T06:01:10;98516.47;;;9.00;92.33
75913;BME280;64592;52.168;21.040;2023-04-01T06:06:15;98506.28;;;9.04;92.99
75913;BME280;64592;52.168;21.040;2023-04-01T06:11:25;98510.63;;;9.05;92.84
75913;BME280;64592;52.168;21.040;2023-04-01T06:16:39;98513.16;;;9.06;93.15
75913;BME280;64592;52.168;21.040;2023-04-01T06:27:25;98513.88;;;9.08;93.17
75913;BME280;64592;52.168;21.040;2023-04-01T06:32:45;98528.00;;;9.10;93.00
75913;BME280;64592;52.168;21.040;2023-04-01T06:43:22;98524.84;;;9.15;93.23
75913;BME280;64592;52.168;21.040;2023-04-01T06:48:41;98525.09;;;9.21;93.09
75913;BME280;64592;52.168;21.040;2023-04-01T06:53:52;98520.41;;;9.23;91.95
75913;BME280;64592;52.168;21.040;2023-04-01T06:58:59;98519.09;;;9.27;92.02
75913;BME280;64592;52.168;21.040;2023-04-01T07:04:06;98515.81;;;9.33;91.97
75913;BME280;64592;52.168;21.040;2023-04-01T07:09:16;98519.72;;;9.39;91.35
75913;BME280;64592;52.168;21.040;2023-04-01T07:14:25;98527.31;;;9.44;91.53
75913;BME280;64592;52.168;21.040;2023-04-01T07:19:31;98522.78;;;9.44;90.78
75913;BME280;64592;52.168;21.040;2023-04-01T07:24:39;98517.88;;;9.40;90.49
75913;BME280;64592;52.168;21.040;2023-04-01T07:29:43;98531.47;;;9.38;89.94
75913;BME280;64592;52.168;21.040;2023-04-01T07:34:53;98523.56;;;9.37;90.68
75913;BME280;64592;52.168;21.040;2023-04-01T07:40:05;98524.25;;;9.39;90.85
75913;BME280;64592;52.168;21.040;2023-04-01T07:45:19;98533.69;;;9.43;90.39
75913;BME280;64592;52.168;21.040;2023-04-01T07:50:26;98526.03;;;9.48;89.85
75913;BME280;64592;52.168;21.040;2023-04-01T07:55:31;98526.25;;;9.54;90.59
75913;BME280;64592;52.168;21.040;2023-04-01T08:00:43;98532.03;;;9.59;90.30
75913;BME280;64592;52.168;21.040;2023-04-01T08:05:50;98539.94;;;9.61;90.27
75913;BME280;64592;52.168;21.040;2023-04-01T08:10:59;98535.25;;;9.63;90.57
75913;BME280;64592;52.168;21.040;2023-04-01T08:16:13;98540.56;;;9.55;90.46
75913;BME280;64592;52.168;21.040;2023-04-01T08:21:20;98543.03;;;9.48;91.43
75913;BME280;64592;52.168;21.040;2023-04-01T08:26:27;98550.53;;;9.45;90.38
75913;BME280;64592;52.168;21.040;2023-04-01T08:31:35;98552.38;;;9.44;90.93
75913;BME280;64592;52.168;21.040;2023-04-01T08:36:41;98549.22;;;9.49;91.22
75913;BME280;64592;52.168;21.040;2023-04-01T08:42:04;98555.00;;;9.54;90.65
75913;BME280;64592;52.168;21.040;2023-04-01T08:52:45;98559.06;;;9.58;89.40
75913;BME280;64592;52.168;21.040;2023-04-01T08:58:03;98565.63;;;9.55;89.41
75913;BME280;64592;52.168;21.040;2023-04-01T09:03:30;98565.91;;;9.52;90.31
75913;BME280;64592;52.168;21.040;2023-04-01T09:08:47;98566.38;;;9.48;88.02
75913;BME280;64592;52.168;21.040;2023-04-01T09:14:10;98563.69;;;9.48;88.15
75913;BME280;64592;52.168;21.040;2023-04-01T09:19:25;98562.28;;;9.44;88.80
75913;BME280;64592;52.168;21.040;2023-04-01T09:30:33;98564.97;;;9.44;87.24
75913;BME280;64592;52.168;21.040;2023-04-01T09:35:46;98569.91;;;9.48;86.88
75913;BME280;64592;52.168;21.040;2023-04-01T09:40:54;98580.91;;;9.55;87.85
75913;BME280;64592;52.168;21.040;2023-04-01T09:46:11;98584.28;;;9.57;87.88
75913;BME280;64592;52.168;21.040;2023-04-01T09:51:27;98580.06;;;9.54;88.79
75913;BME280;64592;52.168;21.040;2023-04-01T10:13:48;98608.34;;;9.13;90.10
75913;BME280;64592;52.168;21.040;2023-04-01T10:19:19;98608.34;;;9.13;90.89
75913;BME280;64592;52.168;21.040;2023-04-01T10:24:57;98614.28;;;9.17;90.64
75913;BME280;64592;52.168;21.040;2023-04-01T10:30:27;98611.97;;;9.22;90.31
75913;BME280;64592;52.168;21.040;2023-04-01T10:35:59;98609.38;;;9.30;90.86
75913;BME280;64592;52.168;21.040;2023-04-01T10:41:37;98603.25;;;9.38;89.51
75913;BME280;64592;52.168;21.040;2023-04-01T10:47:13;98602.72;;;9.52;89.69
75913;BME280;64592;52.168;21.040;2023-04-01T10:52:52;98599.81;;;9.63;89.91
75913;BME280;64592;52.168;21.040;2023-04-01T11:15:30;98613.97;;;9.83;85.08
75913;BME280;64592;52.168;21.040;2023-04-01T11:26:25;98609.81;;;9.88;84.41
75913;BME280;64592;52.168;21.040;2023-04-01T11:31:37;98613.19;;;9.90;84.52
75913;BME280;64592;52.168;21.040;2023-04-01T11:36:48;98610.19;;;9.93;84.04
75913;BME280;64592;52.168;21.040;2023-04-01T11:42:07;98610.88;;;9.95;84.00
75913;BME280;64592;52.168;21.040;2023-04-01T11:47:22;98608.56;;;10.00;85.23
75913;BME280;64592;52.168;21.040;2023-04-01T11:52:37;98596.19;;;10.07;85.44
75913;BME280;64592;52.168;21.040;2023-04-01T11:58:02;98605.88;;;10.18;85.89
75913;BME280;64592;52.168;21.040;2023-04-01T12:03:21;98603.81;;;10.30;85.83
75913;BME280;64592;52.168;21.040;2023-04-01T12:08:39;98611.59;;;10.41;84.91
75913;BME280;64592;52.168;21.040;2023-04-01T12:13:49;98617.00;;;10.41;84.86
75913;BME280;64592;52.168;21.040;2023-04-01T12:18:59;98619.84;;;10.39;85.22
75913;BME280;64592;52.168;21.040;2023-04-01T12:29:49;98622.44;;;10.49;83.92
75913;BME280;64592;52.168;21.040;2023-04-01T12:35:12;98624.00;;;10.52;84.13
75913;BME280;64592;52.168;21.040;2023-04-01T12:40:28;98618.97;;;10.57;82.97
75913;BME280;64592;52.168;21.040;2023-04-01T12:45:33;98619.53;;;10.68;82.70
75913;BME280;64592;52.168;21.040;2023-04-01T12:51:04;98630.31;;;10.94;81.73
75913;BME280;64592;52.168;21.040;2023-04-01T12:56:16;98623.16;;;11.19;77.65
75913;BME280;64592;52.168;21.040;2023-04-01T13:07:20;98626.34;;;11.73;74.29
75913;BME280;64592;52.168;21.040;2023-04-01T13:12:36;98623.38;;;11.84;73.92
75913;BME280;64592;52.168;21.040;2023-04-01T13:17:46;98628.44;;;11.95;73.19
75913;BME280;64592;52.168;21.040;2023-04-01T13:23:01;98628.81;;;12.16;72.67
75913;BME280;64592;52.168;21.040;2023-04-01T13:28:14;98628.66;;;12.34;72.58
75913;BME280;64592;52.168;21.040;2023-04-01T13:33:23;98629.13;;;12.37;70.83
75913;BME280;64592;52.168;21.040;2023-04-01T13:38:54;98637.28;;;12.29;71.11
75913;BME280;64592;52.168;21.040;2023-04-01T13:44:07;98640.66;;;12.15;70.74
75913;BME280;64592;52.168;21.040;2023-04-01T13:49:31;98650.75;;;11.97;72.36
75913;BME280;64592;52.168;21.040;2023-04-01T13:54:55;98666.50;;;11.67;77.90
75913;BME280;64592;52.168;21.040;2023-04-01T14:00:10;98679.69;;;11.28;82.08
75913;BME280;64592;52.168;21.040;2023-04-01T14:05:35;98688.66;;;11.03;84.16
75913;BME280;64592;52.168;21.040;2023-04-01T14:10:44;98685.72;;;10.88;84.66
75913;BME280;64592;52.168;21.040;2023-04-01T14:16:07;98685.66;;;10.80;85.15
75913;BME280;64592;52.168;21.040;2023-04-01T14:21:23;98687.81;;;10.77;86.10
75913;BME280;64592;52.168;21.040;2023-04-01T14:27:03;98686.97;;;10.76;85.88
75913;BME280;64592;52.168;21.040;2023-04-01T14:32:14;98696.25;;;10.82;86.34
75913;BME280;64592;52.168;21.040;2023-04-01T14:37:48;98692.34;;;10.76;85.80
75913;BME280;64592;52.168;21.040;2023-04-01T14:43:09;98713.41;;;10.55;87.17
75913;BME280;64592;52.168;21.040;2023-04-01T14:48:23;98709.66;;;10.48;86.71
75913;BME280;64592;52.168;21.040;2023-04-01T14:53:28;98716.75;;;10.31;86.89
75913;BME280;64592;52.168;21.040;2023-04-01T14:58:43;98723.75;;;10.24;86.76
75913;BME280;64592;52.168;21.040;2023-04-01T15:03:50;98729.44;;;10.21;86.12
75913;BME280;64592;52.168;21.040;2023-04-01T15:09:01;98740.09;;;10.13;86.55
75913;BME280;64592;52.168;21.040;2023-04-01T15:14:26;98751.41;;;9.99;86.45
75913;BME280;64592;52.168;21.040;2023-04-01T15:19:41;98746.78;;;9.91;85.75
75913;BME280;64592;52.168;21.040;2023-04-01T15:25:00;98750.91;;;9.86;86.83
75913;BME280;64592;52.168;21.040;2023-04-01T15:30:29;98757.25;;;9.67;86.58
75913;BME280;64592;52.168;21.040;2023-04-01T15:35:41;98768.34;;;9.54;85.59
75913;BME280;64592;52.168;21.040;2023-04-01T15:40:49;98774.06;;;9.42;86.59
75913;BME280;64592;52.168;21.040;2023-04-01T15:45:58;98783.56;;;9.36;87.04
75913;BME280;64592;52.168;21.040;2023-04-01T15:51:23;98795.63;;;9.32;87.22
75913;BME280;64592;52.168;21.040;2023-04-01T15:56:39;98806.66;;;9.19;88.64
75913;BME280;64592;52.168;21.040;2023-04-01T16:01:50;98822.13;;;9.17;89.18
75913;BME280;64592;52.168;21.040;2023-04-01T16:07:04;98827.19;;;9.20;90.57
75913;BME280;64592;52.168;21.040;2023-04-01T16:12:16;98829.75;;;9.22;90.14
75913;BME280;64592;52.168;21.040;2023-04-01T16:17:40;98835.25;;;9.20;89.29
75913;BME280;64592;52.168;21.040;2023-04-01T16:22:52;98834.56;;;9.18;88.20
75913;BME280;64592;52.168;21.040;2023-04-01T16:28:09;98845.31;;;9.18;88.05
75913;BME280;64592;52.168;21.040;2023-04-01T16:33:21;98860.75;;;9.16;87.41
75913;BME280;64592;52.168;21.040;2023-04-01T16:38:27;98862.31;;;9.09;87.29
75913;BME280;64592;52.168;21.040;2023-04-01T16:43:39;98884.09;;;9.06;86.80
75913;BME280;64592;52.168;21.040;2023-04-01T16:48:58;98889.78;;;9.03;89.25
75913;BME280;64592;52.168;21.040;2023-04-01T16:54:05;98908.28;;;9.06;90.67
75913;BME280;64592;52.168;21.040;2023-04-01T16:59:15;98907.72;;;8.93;88.21
75913;BME280;64592;52.168;21.040;2023-04-01T17:04:26;98922.97;;;8.83;86.81
75913;BME280;64592;52.168;21.040;2023-04-01T17:09:41;98937.56;;;8.80;87.12
75913;BME280;64592;52.168;21.040;2023-04-01T17:14:54;98933.19;;;8.79;86.58
75913;BME280;64592;52.168;21.040;2023-04-01T17:20:32;98952.38;;;8.75;87.48
75913;BME280;64592;52.168;21.040;2023-04-01T17:25:55;98952.94;;;8.69;86.95
75913;BME280;64592;52.168;21.040;2023-04-01T17:31:07;98959.03;;;8.71;86.89
75913;BME280;64592;52.168;21.040;2023-04-01T17:36:21;98978.81;;;8.70;87.79
75913;BME280;64592;52.168;21.040;2023-04-01T17:41:32;98989.44;;;8.71;87.26
75913;BME280;64592;52.168;21.040;2023-04-01T17:46:49;98993.22;;;8.69;87.44
75913;BME280;64592;52.168;21.040;2023-04-01T17:52:02;98986.31;;;8.66;86.12
75913;BME280;64592;52.168;21.040;2023-04-01T17:57:23;99006.25;;;8.64;86.83
75913;BME280;64592;52.168;21.040;2023-04-01T18:02:31;99009.66;;;8.66;86.02
75913;BME280;64592;52.168;21.040;2023-04-01T18:19:15;99038.91;;;8.69;86.86
75913;BME280;64592;52.168;21.040;2023-04-01T18:24:27;99047.69;;;8.71;85.95
75913;BME280;64592;52.168;21.040;2023-04-01T18:29:36;99058.00;;;8.66;86.89
75913;BME280;64592;52.168;21.040;2023-04-01T18:34:52;99059.41;;;8.70;86.98
75913;BME280;64592;52.168;21.040;2023-04-01T18:40:03;99074.81;;;8.68;86.73
75913;BME280;64592;52.168;21.040;2023-04-01T18:45:19;99077.31;;;8.60;85.44
75913;BME280;64592;52.168;21.040;2023-04-01T18:50:27;99081.53;;;8.52;86.80
75913;BME280;64592;52.168;21.040;2023-04-01T18:55:35;99088.28;;;8.47;86.52
75913;BME280;64592;52.168;21.040;2023-04-01T19:00:42;99095.91;;;8.42;86.59
75913;BME280;64592;52.168;21.040;2023-04-01T19:05:50;99095.78;;;8.43;85.69
75913;BME280;64592;52.168;21.040;2023-04-01T19:11:02;99108.63;;;8.40;85.83
75913;BME280;64592;52.168;21.040;2023-04-01T19:16:15;99111.41;;;8.38;86.02
75913;BME280;64592;52.168;21.040;2023-04-01T19:21:26;99116.00;;;8.27;86.28
75913;BME280;64592;52.168;21.040;2023-04-01T19:26:33;99127.13;;;8.22;86.55
75913;BME280;64592;52.168;21.040;2023-04-01T19:31:49;99138.84;;;8.21;87.27
75913;BME280;64592;52.168;21.040;2023-04-01T19:36:56;99139.84;;;8.20;86.89
75913;BME280;64592;52.168;21.040;2023-04-01T19:42:01;99147.94;;;8.09;87.08
75913;BME280;64592;52.168;21.040;2023-04-01T19:47:11;99153.91;;;8.12;87.08
75913;BME280;64592;52.168;21.040;2023-04-01T19:52:22;99164.38;;;8.15;86.44
75913;BME280;64592;52.168;21.040;2023-04-01T19:57:36;99168.06;;;8.14;86.73
75913;BME280;64592;52.168;21.040;2023-04-01T20:03:01;99177.09;;;8.13;86.28
75913;BME280;64592;52.168;21.040;2023-04-01T20:08:11;99176.47;;;8.10;86.33
75913;BME280;64592;52.168;21.040;2023-04-01T20:13:21;99175.16;;;8.04;86.01
75913;BME280;64592;52.168;21.040;2023-04-01T20:18:32;99167.03;;;7.95;86.83
75913;BME280;64592;52.168;21.040;2023-04-01T20:23:42;99186.53;;;7.97;87.50
75913;BME280;64592;52.168;21.040;2023-04-01T20:28:50;;;;7.99;
75913;BME280;64592;52.168;21.040;2023-04-01T20:34:31;99203.75;;;7.94;87.12
75913;BME280;64592;52.168;21.040;2023-04-01T20:39:52;99209.03;;;7.85;88.05
75913;BME280;64592;52.168;21.040;2023-04-01T20:45:13;99210.53;;;7.77;87.43
75913;BME280;64592;52.168;21.040;2023-04-01T20:50:22;99218.19;;;7.71;87.97
75913;BME280;64592;52.168;21.040;2023-04-01T20:55:47;99219.31;;;7.68;87.30
75913;BME280;64592;52.168;21.040;2023-04-01T21:01:00;99231.41;;;7.63;87.52
75913;BME280;64592;52.168;21.040;2023-04-01T21:06:47;99248.09;;;7.66;87.27
75913;BME280;64592;52.168;21.040;2023-04-01T21:12:01;99251.84;;;7.75;87.08
75913;BME280;64592;52.168;21.040;2023-04-01T21:17:08;99259.28;;;7.71;86.42
75913;BME280;64592;52.168;21.040;2023-04-01T21:22:46;99272.00;;;7.69;87.09
75913;BME280;64592;52.168;21.040;2023-04-01T21:28:10;99275.16;;;7.63;86.83
75913;BME280;64592;52.168;21.040;2023-04-01T21:33:32;99272.00;;;7.58;86.09
75913;BME280;64592;52.168;21.040;2023-04-01T21:38:43;99279.31;;;7.56;85.57
75913;BME280;64592;52.168;21.040;2023-04-01T21:44:20;99293.94;;;7.52;85.69
75913;BME280;64592;52.168;21.040;2023-04-01T21:49:43;99288.59;;;7.52;85.28
75913;BME280;64592;52.168;21.040;2023-04-01T21:55:18;99307.09;;;7.44;84.92
75913;BME280;64592;52.168;21.040;2023-04-01T22:00:32;99304.53;;;7.43;85.31
75913;BME280;64592;52.168;21.040;2023-04-01T22:05:36;99304.19;;;7.36;85.56
75913;BME280;64592;52.168;21.040;2023-04-01T22:10:44;99317.09;;;7.42;84.10
75913;BME280;64592;52.168;21.040;2023-04-01T22:16:00;99315.78;;;7.48;84.04
75913;BME280;64592;52.168;21.040;2023-04-01T22:21:11;99322.44;;;7.42;84.07
75913;BME280;64592;52.168;21.040;2023-04-01T22:26:18;99329.03;;;7.38;85.35
75913;BME280;64592;52.168;21.040;2023-04-01T22:31:28;99329.75;;;7.29;84.59
75913;BME280;64592;52.168;21.040;2023-04-01T22:36:37;99337.56;;;7.32;84.53
75913;BME280;64592;52.168;21.040;2023-04-01T22:41:53;99341.72;;;7.36;84.21
75913;BME280;64592;52.168;21.040;2023-04-01T22:47:02;99342.31;;;7.17;84.00
75913;BME280;64592;52.168;21.040;2023-04-01T22:52:13;99351.91;;;7.20;84.49
75913;BME280;64592;52.168;21.040;2023-04-01T22:57:38;99350.19;;;7.19;83.98
75913;BME280;64592;52.168;21.040;2023-04-01T23:02:47;99352.88;;;7.08;84.22
75913;BME280;64592;52.168;21.040;2023-04-01T23:07:56;99364.06;;;7.01;83.15
75913;BME280;64592;52.168;21.040;2023-04-01T23:13:01;99369.66;;;6.98;84.05
75913;BME280;64592;52.168;21.040;2023-04-01T23:18:20;99368.84;;;7.09;82.70
75913;BME280;64592;52.168;21.040;2023-04-01T23:23:33;99373.94;;;7.01;83.05
75913;BME280;64592;52.168;21.040;2023-04-01T23:28:43;99387.22;;;7.03;83.64
75913;BME280;64592;52.168;21.040;2023-04-01T23:33:53;99387.41;;;6.88;83.50
75913;BME280;64592;52.168;21.040;2023-04-01T23:38:55;99399.09;;;6.87;84.25
75913;BME280;64592;52.168;21.040;2023-04-01T23:44:01;99396.75;;;6.83;83.97
75913;BME280;64592;52.168;21.040;2023-04-01T23:49:06;99407.03;;;6.89;82.98
75913;BME280;64592;52.168;21.040;2023-04-01T23:54:17;99406.75;;;6.81;82.87
75913;BME280;64592;52.168;21.040;2023-04-01T23:59:24;99421.09;;;6.80;82.75
